New Harbour, Canada
Current Conditions -  °F | °C
As of 10:00 AM on Sunday 21 Dec 2014 (Local Time) from CYYT Reporting Station
Overcast Overcast  
Wind Chill: 18°   Ceiling: 2400
Heat Index: 28°   Visibility: 15mi
Dew Point: 21°   Wind: 13mph
Humidity: 74%   Direction: 20°NNE
Pressure: 30.25"   Gusts: NA
Location:  47.58°N, 53.55°W
Report Text: CYYT 211300Z 02011KT 15SM OVC024 M02/M06 A3025 RMK SC8 SLP252
Loading
Personal Weather Stations






























Interactive Weather Map New forecast layout! Learn more

10-Day Weather Forecast

Advertisements
Track Severe Weather on mobile